Time;durP1;ratioP1;P1;durP2;ratioP2;P2;SDS_P1;SDS_P2;PMS_P1;PMS_P2;Temp;Humidity;BMP_temperature;BMP_pressure;BME280_temperature;BME280_humidity;BME280_pressure;Samples;Min_cycle;Max_cycle;Signal;HPM_P1;HPM_P2
2023/11/16 00:01:09;;;;;;;6.97;2.10;;;;;;;19.49;46.61;101527.75;4959154;28;20070;-72
2023/11/16 00:03:37;;;;;;;5.90;1.60;;;;;;;19.46;46.46;101521.88;4959753;28;20470;-72
2023/11/16 00:06:02;;;;;;;6.22;1.88;;;;;;;19.45;46.31;101528.09;4927142;28;20086;-72
2023/11/16 00:08:29;;;;;;;6.13;1.55;;;;;;;19.46;46.52;101530.63;4958921;28;20117;-71
2023/11/16 00:10:56;;;;;;;6.10;1.60;;;;;;;19.45;46.48;101533.41;4958969;28;20039;-72
2023/11/16 00:13:22;;;;;;;6.07;1.65;;;;;;;19.44;46.30;101537.00;4959025;28;20543;-72
2023/11/16 00:15:48;;;;;;;4.25;1.45;;;;;;;19.42;46.47;101526.53;4957071;28;20086;-72
2023/11/16 00:18:17;;;;;;;5.20;1.90;;;;;;;19.41;46.46;101540.72;4959103;28;20141;-72
2023/11/16 00:20:42;;;;;;;4.47;1.65;;;;;;;19.42;46.04;101538.91;4957808;28;20042;-71
2023/11/16 00:23:08;;;;;;;7.43;2.17;;;;;;;19.40;46.47;101539.88;4958021;28;20042;-72
2023/11/16 00:25:34;;;;;;;4.40;1.60;;;;;;;19.40;46.47;101544.31;4958256;28;20287;-72
2023/11/16 00:28:00;;;;;;;7.38;2.13;;;;;;;19.39;45.95;101540.84;4958656;28;20039;-72
2023/11/16 00:30:26;;;;;;;6.00;1.58;;;;;;;19.39;46.22;101539.97;4958991;28;20940;-72
2023/11/16 00:32:51;;;;;;;4.72;1.73;;;;;;;19.37;46.30;101523.41;4958951;28;20031;-72
2023/11/16 00:35:16;;;;;;;4.88;1.50;;;;;;;19.36;46.16;101527.84;4958644;28;21260;-72
2023/11/16 00:37:43;;;;;;;5.27;1.63;;;;;;;19.35;45.94;101526.16;4962557;28;20037;-72
2023/11/16 00:40:10;;;;;;;5.78;1.75;;;;;;;19.34;46.04;101523.63;4962078;28;20271;-72
2023/11/16 00:42:36;;;;;;;3.75;1.42;;;;;;;19.32;46.00;101513.19;4963062;28;20035;-72
2023/11/16 00:45:02;;;;;;;5.75;1.73;;;;;;;19.32;45.96;101526.41;4962848;28;20050;-72
2023/11/16 00:47:29;;;;;;;5.55;1.65;;;;;;;19.31;45.98;101515.94;4962115;28;20047;-73
2023/11/16 00:49:55;;;;;;;4.85;1.67;;;;;;;19.30;45.86;101516.91;4962832;28;20037;-72
2023/11/16 00:52:20;;;;;;;5.38;1.83;;;;;;;19.30;46.22;101520.38;4962820;28;20027;-73
2023/11/16 00:54:48;;;;;;;6.00;1.48;;;;;;;19.29;45.98;101518.69;4961932;28;20031;-72
2023/11/16 00:57:21;;;;;;;6.50;1.70;;;;;;;19.29;45.92;101516.06;4945881;28;20054;-72
2023/11/16 00:59:47;;;;;;;7.15;1.75;;;;;;;19.28;45.91;101519.66;4962468;28;20035;-72
2023/11/16 01:02:13;;;;;;;4.93;1.50;;;;;;;19.27;45.94;101515.34;4962202;28;20540;-71
2023/11/16 01:04:39;;;;;;;4.93;1.73;;;;;;;19.28;45.74;101521.44;4962561;28;20039;-72
2023/11/16 01:07:08;;;;;;;5.40;1.80;;;;;;;19.27;45.81;101522.44;4962709;28;20120;-72
2023/11/16 01:09:35;;;;;;;3.95;1.40;;;;;;;19.25;45.67;101519.91;4962578;28;20035;-72
2023/11/16 01:12:04;;;;;;;4.28;1.50;;;;;;;19.25;45.86;101519.91;4961086;28;20666;-72
2023/11/16 01:14:30;;;;;;;5.72;1.50;;;;;;;19.23;46.02;101526.25;4962278;28;20058;-72
2023/11/16 01:16:56;;;;;;;4.00;1.50;;;;;;;19.24;45.85;101525.31;4961679;28;20105;-72
2023/11/16 01:19:26;;;;;;;5.05;1.33;;;;;;;19.23;45.90;101526.25;4961558;28;20030;-72
2023/11/16 01:21:54;;;;;;;5.18;1.55;;;;;;;19.20;45.78;101512.31;4961798;28;20026;-72
2023/11/16 01:24:22;;;;;;;6.50;1.58;;;;;;;19.20;45.78;101520.25;4961161;28;20035;-72
2023/11/16 01:26:48;;;;;;;7.35;1.98;;;;;;;19.20;45.77;101514.97;4961542;28;20046;-72
2023/11/16 01:29:18;;;;;;;5.47;1.60;;;;;;;19.19;45.87;101515.06;4960687;28;20035;-72
2023/11/16 01:31:44;;;;;;;4.20;1.55;;;;;;;19.18;46.18;101518.66;4959960;28;20038;-72
2023/11/16 01:34:10;;;;;;;4.32;1.60;;;;;;;19.17;45.80;101523.13;4927788;28;20030;-72
2023/11/16 01:36:37;;;;;;;4.22;1.50;;;;;;;19.17;45.79;101525.75;4960964;28;20035;-72
2023/11/16 01:39:02;;;;;;;5.25;1.63;;;;;;;19.16;45.95;101516.13;4960559;28;20093;-72
2023/11/16 01:41:27;;;;;;;5.82;1.70;;;;;;;19.17;45.65;101514.34;4961789;28;20042;-72
2023/11/16 01:43:53;;;;;;;6.80;1.95;;;;;;;19.15;45.74;101514.47;4960479;28;20038;-73
2023/11/16 01:46:19;;;;;;;7.23;1.73;;;;;;;19.15;45.76;101521.53;4960414;28;20035;-73
2023/11/16 01:48:48;;;;;;;5.53;1.50;;;;;;;19.14;45.77;101527.78;4960815;28;20284;-72
2023/11/16 01:51:16;;;;;;;4.05;1.35;;;;;;;19.14;45.77;101522.50;4961306;28;20031;-72
2023/11/16 01:53:44;;;;;;;7.25;2.55;;;;;;;19.13;45.92;101529.56;4961968;28;20041;-72
2023/11/16 01:56:11;;;;;;;4.53;1.60;;;;;;;19.12;45.64;101527.91;4960864;28;20073;-72
2023/11/16 01:58:37;;;;;;;6.72;1.63;;;;;;;19.11;45.56;101526.22;4961281;28;20041;-72
2023/11/16 02:01:04;;;;;;;5.75;1.45;;;;;;;19.10;45.64;101521.88;4960768;28;20031;-72
2023/11/16 02:03:31;;;;;;;7.18;1.95;;;;;;;19.10;45.85;101516.59;4960749;28;20121;-72
2023/11/16 02:05:56;;;;;;;5.57;1.42;;;;;;;19.09;45.60;101514.94;4959754;28;20034;-71
2023/11/16 02:08:22;;;;;;;4.05;1.48;;;;;;;19.08;45.59;101517.69;4960815;28;20043;-73
2023/11/16 02:10:47;;;;;;;5.80;2.00;;;;;;;19.08;45.70;101517.69;4961018;28;20074;-72
2023/11/16 02:13:20;;;;;;;6.88;1.85;;;;;;;19.06;45.68;101517.78;4960635;28;20030;-72
2023/11/16 02:15:46;;;;;;;5.03;1.25;;;;;;;19.06;45.57;101520.44;4960043;28;20037;-72
2023/11/16 02:18:14;;;;;;;6.65;1.90;;;;;;;19.07;45.61;101513.34;4961202;28;20030;-72
2023/11/16 02:20:41;;;;;;;3.80;1.40;;;;;;;19.05;45.38;101509.97;4971242;28;20038;-72
2023/11/16 02:23:07;;;;;;;4.80;2.05;;;;;;;19.05;45.60;101509.97;4959297;28;20117;-72
2023/11/16 02:25:49;;;;;;;4.07;1.25;;;;;;;19.04;45.62;101503.84;4960855;28;20113;-73
2023/11/16 02:28:15;;;;;;;5.50;1.70;;;;;;;19.04;45.51;101511.75;4959514;28;20041;-72
2023/11/16 02:30:40;;;;;;;5.80;1.65;;;;;;;19.02;45.49;101511.88;4927749;28;20403;-73
2023/11/16 02:33:06;;;;;;;4.53;1.67;;;;;;;19.03;45.49;101504.81;4959365;28;20039;-72
2023/11/16 02:35:35;;;;;;;5.93;1.77;;;;;;;19.03;45.77;101510.09;4958808;28;20455;-72
2023/11/16 02:38:00;;;;;;;6.45;1.75;;;;;;;19.01;45.55;101502.28;4960276;28;20031;-72
2023/11/16 02:40:26;;;;;;;5.60;1.70;;;;;;;18.99;45.58;101498.06;4958759;28;20033;-72
2023/11/16 02:42:52;;;;;;;5.15;1.52;;;;;;;19.01;45.80;101507.56;4960521;28;20471;-72
2023/11/16 02:45:18;;;;;;;4.78;1.58;;;;;;;19.00;45.41;101512.97;4960817;28;20034;-72
2023/11/16 02:47:46;;;;;;;4.55;1.83;;;;;;;18.99;45.40;101506.84;4959788;28;20035;-72
2023/11/16 02:50:14;;;;;;;6.60;1.90;;;;;;;18.99;45.54;101505.97;4960275;28;20022;-72
2023/11/16 02:52:39;;;;;;;5.60;1.45;;;;;;;18.98;45.34;101501.69;4959999;28;20506;-72
2023/11/16 02:55:05;;;;;;;5.57;1.65;;;;;;;18.96;45.46;101500.94;4958160;28;20042;-72
2023/11/16 02:57:32;;;;;;;5.72;1.73;;;;;;;18.97;45.36;101497.34;4960667;28;20550;-72
2023/11/16 02:59:58;;;;;;;6.63;2.15;;;;;;;18.95;45.15;101492.16;4959617;28;20042;-72
2023/11/16 03:02:23;;;;;;;4.10;1.40;;;;;;;18.96;45.42;101498.28;4959089;28;20038;-72
2023/11/16 03:04:48;;;;;;;5.50;1.40;;;;;;;18.95;45.29;101494.81;4958064;28;20402;-72
2023/11/16 03:07:14;;;;;;;5.10;1.70;;;;;;;18.95;45.40;101494.81;4959947;28;20038;-73
2023/11/16 03:09:39;;;;;;;4.25;1.73;;;;;;;18.92;45.29;101495.03;4927165;28;20607;-72
2023/11/16 03:12:05;;;;;;;4.70;1.50;;;;;;;18.93;45.30;101491.47;4959378;28;20038;-73
2023/11/16 03:14:30;;;;;;;5.97;1.80;;;;;;;18.93;45.17;101488.81;4959808;28;20280;-73
2023/11/16 03:16:57;;;;;;;5.70;1.97;;;;;;;18.92;45.41;101492.41;4959103;28;20038;-73
2023/11/16 03:19:22;;;;;;;4.43;1.50;;;;;;;18.92;45.19;101478.38;4959713;28;20275;-72
2023/11/16 03:21:49;;;;;;;6.55;1.58;;;;;;;18.93;45.26;101472.09;4959337;28;20051;-72
2023/11/16 03:24:14;;;;;;;5.00;1.50;;;;;;;18.91;45.41;101479.31;4959716;28;20035;-73
2023/11/16 03:26:40;;;;;;;6.13;1.88;;;;;;;18.91;45.33;101476.66;4957630;28;20403;-73
2023/11/16 03:29:05;;;;;;;4.82;2.15;;;;;;;18.89;45.41;101481.22;4957841;28;20058;-72
2023/11/16 03:31:35;;;;;;;6.20;1.77;;;;;;;18.90;45.32;101481.13;4958975;28;20038;-73
2023/11/16 03:34:04;;;;;;;5.63;1.73;;;;;;;18.89;45.36;101487.34;4959582;28;20069;-72
2023/11/16 03:36:30;;;;;;;4.68;1.70;;;;;;;18.89;45.33;101483.88;4957854;28;20062;-73
2023/11/16 03:38:57;;;;;;;4.82;1.45;;;;;;;18.88;45.57;101475.09;4943285;28;20471;-72
2023/11/16 03:41:23;;;;;;;5.43;1.60;;;;;;;18.88;45.41;101479.53;4959838;28;20487;-72
2023/11/16 03:43:48;;;;;;;5.03;1.70;;;;;;;18.87;45.32;101488.41;4958943;28;20121;-72
2023/11/16 03:46:14;;;;;;;6.25;1.63;;;;;;;18.88;45.32;101493.56;4958213;28;20117;-73
2023/11/16 03:48:39;;;;;;;4.90;1.70;;;;;;;18.85;45.51;101492.03;4942039;28;20050;-72
2023/11/16 03:51:06;;;;;;;5.55;1.73;;;;;;;18.86;45.57;101492.84;4958634;28;20114;-72
2023/11/16 03:53:31;;;;;;;4.20;1.50;;;;;;;18.85;45.46;101486.75;4959135;28;20082;-72
2023/11/16 03:55:59;;;;;;;5.28;1.50;;;;;;;18.84;45.31;101486.84;4958485;28;20062;-73
2023/11/16 03:58:24;;;;;;;4.60;1.63;;;;;;;18.83;45.20;101479.84;4958092;28;20513;-72
2023/11/16 04:00:50;;;;;;;6.70;1.88;;;;;;;18.84;45.38;101479.75;4971800;28;20046;-73
2023/11/16 04:03:15;;;;;;;6.35;2.03;;;;;;;18.83;45.44;101472.78;4958348;28;20189;-73
2023/11/16 04:05:41;;;;;;;4.57;1.60;;;;;;;18.83;45.30;101477.19;4958750;28;20534;-72
2023/11/16 04:08:06;;;;;;;4.22;1.35;;;;;;;18.82;45.29;101481.66;4958101;28;20276;-73
2023/11/16 04:10:31;;;;;;;3.78;1.38;;;;;;;18.81;45.32;101479.94;4960508;28;20031;-73
2023/11/16 04:12:56;;;;;;;4.30;1.33;;;;;;;18.82;45.62;101480.81;4962661;28;20026;-72
2023/11/16 04:15:22;;;;;;;5.07;1.58;;;;;;;18.82;45.54;101484.28;4960653;28;20272;-72
2023/11/16 04:17:48;;;;;;;4.70;1.70;;;;;;;18.81;45.45;101476.47;4962595;28;20489;-72
2023/11/16 04:20:13;;;;;;;7.45;2.17;;;;;;;18.84;45.37;101476.28;4961335;28;20034;-72
2023/11/16 04:22:40;;;;;;;5.20;1.60;;;;;;;18.85;45.54;101472.69;4962117;28;20197;-72
2023/11/16 04:25:27;;;;;;;5.45;1.58;;;;;;;18.83;45.61;101472.78;4960044;28;20043;-72
2023/11/16 04:28:04;;;;;;;5.35;1.60;;;;;;;18.87;45.46;101472.56;4961760;28;20043;-72
2023/11/16 04:30:30;;;;;;;5.00;1.90;;;;;;;18.83;45.56;101466.63;4962667;28;20035;-72
2023/11/16 04:32:57;;;;;;;6.07;1.77;;;;;;;18.84;45.29;101466.56;4959970;28;20046;-72
2023/11/16 04:35:23;;;;;;;4.38;1.58;;;;;;;18.84;45.68;101466.56;4957906;28;20031;-73
2023/11/16 04:37:49;;;;;;;4.18;1.58;;;;;;;18.83;45.70;101466.63;4960675;28;20134;-72
2023/11/16 04:40:14;;;;;;;3.85;1.65;;;;;;;18.85;45.66;101470.06;4961677;28;20046;-72
2023/11/16 04:42:44;;;;;;;6.93;1.80;;;;;;;18.85;45.44;101480.63;4944476;28;20031;-72
2023/11/16 04:45:14;;;;;;;5.07;1.60;;;;;;;18.83;45.49;101482.47;4962988;28;20126;-72
2023/11/16 04:47:41;;;;;;;4.38;1.60;;;;;;;18.82;45.44;101484.28;4961589;28;21035;-72
2023/11/16 04:50:07;;;;;;;6.15;1.70;;;;;;;18.83;45.39;101482.47;4960653;28;20056;-72
2023/11/16 04:52:34;;;;;;;7.03;1.75;;;;;;;18.82;45.72;101479.00;4961736;28;20963;-72
2023/11/16 04:55:00;;;;;;;4.35;1.60;;;;;;;18.80;45.20;101472.16;4960821;28;20047;-73
2023/11/16 04:57:25;;;;;;;6.28;1.80;;;;;;;18.82;45.58;101467.63;4962014;28;20663;-72
2023/11/16 04:59:53;;;;;;;3.80;1.45;;;;;;;18.80;45.24;101466.88;4959625;28;20031;-72
2023/11/16 05:02:19;;;;;;;4.70;1.65;;;;;;;18.80;45.75;101462.44;4960461;28;20130;-72
2023/11/16 05:04:45;;;;;;;4.85;1.70;;;;;;;18.79;45.59;101457.28;4960515;28;20129;-72
2023/11/16 05:07:12;;;;;;;5.43;1.55;;;;;;;18.78;45.47;101464.34;4960673;28;20793;-72
2023/11/16 05:09:37;;;;;;;4.95;1.63;;;;;;;18.78;45.49;101464.34;4962255;28;20053;-72
2023/11/16 05:12:03;;;;;;;4.38;1.50;;;;;;;18.78;45.48;101469.63;4961942;28;20833;-72
2023/11/16 05:14:28;;;;;;;3.97;1.60;;;;;;;18.77;45.42;101467.94;4961691;28;20409;-72
2023/11/16 05:16:54;;;;;;;4.88;1.50;;;;;;;18.78;45.62;101469.63;4961227;28;20060;-72
2023/11/16 05:19:19;;;;;;;5.57;1.77;;;;;;;18.78;45.47;101466.16;4962445;28;20479;-73
2023/11/16 05:21:45;;;;;;;6.40;1.80;;;;;;;18.76;45.59;101471.53;4960521;28;20034;-73
2023/11/16 05:24:10;;;;;;;6.45;1.60;;;;;;;18.77;45.63;101472.38;4960663;28;20037;-73
2023/11/16 05:26:38;;;;;;;4.68;1.70;;;;;;;18.75;45.45;101464.56;4961166;28;20027;-73
2023/11/16 05:29:04;;;;;;;5.55;1.95;;;;;;;18.75;45.63;101459.28;4960611;28;20035;-71
2023/11/16 05:31:30;;;;;;;5.38;1.70;;;;;;;18.75;45.46;101463.72;4961721;28;20046;-72
2023/11/16 05:33:55;;;;;;;5.60;1.80;;;;;;;18.74;45.47;101459.41;4960877;28;20793;-72
2023/11/16 05:36:21;;;;;;;4.75;1.70;;;;;;;18.73;45.45;101445.34;4958119;28;20039;-72
2023/11/16 05:38:46;;;;;;;4.93;1.58;;;;;;;18.72;45.61;101446.31;4960675;28;20047;-72
2023/11/16 05:41:13;;;;;;;5.15;1.90;;;;;;;18.72;45.44;101442.84;4961863;28;20041;-72
2023/11/16 05:43:39;;;;;;;4.22;1.70;;;;;;;18.72;45.47;101445.47;4960176;28;20492;-72
2023/11/16 05:46:05;;;;;;;5.75;1.67;;;;;;;18.71;45.47;101447.28;4959764;28;20490;-71
2023/11/16 05:48:30;;;;;;;6.03;1.50;;;;;;;18.73;45.49;101449.81;4960593;28;20035;-71
2023/11/16 05:50:57;;;;;;;4.73;1.60;;;;;;;18.64;45.51;101428.41;4959745;28;20073;-71
2023/11/16 05:53:22;;;;;;;4.88;1.50;;;;;;;18.70;45.44;101431.56;4960620;28;20396;-72
2023/11/16 05:55:47;;;;;;;4.00;1.77;;;;;;;18.70;45.71;101437.66;4958569;28;20320;-72
2023/11/16 05:58:13;;;;;;;5.40;1.63;;;;;;;18.69;45.58;101428.03;4960671;28;20026;-72
2023/11/16 06:00:39;;;;;;;6.82;1.90;;;;;;;18.71;45.50;101431.44;4942153;28;20035;-70
2023/11/16 06:03:05;;;;;;;6.40;2.10;;;;;;;18.72;45.66;101430.47;4961104;28;20133;-72
2023/11/16 06:05:32;;;;;;;4.25;1.83;;;;;;;18.72;45.71;101429.63;4960133;28;20092;-72
2023/11/16 06:07:58;;;;;;;4.63;1.77;;;;;;;18.70;45.66;101426.28;4958491;28;20047;-72
2023/11/16 06:10:23;;;;;;;4.35;1.40;;;;;;;18.70;45.85;101427.09;4959517;28;20781;-72
2023/11/16 06:12:49;;;;;;;6.10;1.65;;;;;;;18.72;45.67;101429.63;4943940;28;20580;-72
2023/11/16 06:15:14;;;;;;;4.45;1.70;;;;;;;18.71;45.83;101420.88;4960226;28;20034;-72
2023/11/16 06:17:41;;;;;;;5.30;1.58;;;;;;;18.72;45.86;101417.25;4961102;28;20031;-72
2023/11/16 06:20:10;;;;;;;5.82;1.70;;;;;;;18.75;46.01;101419.69;4958643;28;20510;-72
2023/11/16 06:22:40;;;;;;;5.00;1.50;;;;;;;18.75;45.93;101421.47;4960532;28;20053;-72
2023/11/16 06:25:10;;;;;;;4.63;1.63;;;;;;;18.75;46.19;101418.84;4958892;28;20126;-73
2023/11/16 06:27:35;;;;;;;6.80;1.70;;;;;;;18.75;46.10;101417.03;4960309;28;20027;-72
2023/11/16 06:30:01;;;;;;;5.25;1.73;;;;;;;18.75;46.34;101406.47;4959914;28;20042;-73
2023/11/16 06:32:27;;;;;;;4.72;1.33;;;;;;;18.77;46.31;101407.22;4958791;28;20162;-72
2023/11/16 06:34:53;;;;;;;4.50;1.80;;;;;;;18.77;46.67;101404.59;4956875;28;20126;-72
2023/11/16 06:37:18;;;;;;;5.82;1.60;;;;;;;18.78;46.82;101400.13;4956230;28;20465;-73
2023/11/16 06:39:44;;;;;;;3.67;1.30;;;;;;;18.78;46.82;101395.69;4958752;28;20042;-73
2023/11/16 06:42:10;;;;;;;4.93;1.48;;;;;;;18.79;47.01;101399.19;4940286;28;20887;-73
2023/11/16 06:44:35;;;;;;;3.22;1.40;;;;;;;18.81;46.96;101394.63;4960595;28;20043;-73
2023/11/16 06:47:03;;;;;;;3.38;1.52;;;;;;;18.83;46.68;101384.78;4959138;28;20027;-73
2023/11/16 06:49:29;;;;;;;4.03;1.58;;;;;;;18.87;46.67;101388.03;4943524;28;20095;-73
2023/11/16 06:51:54;;;;;;;3.53;1.40;;;;;;;18.89;46.86;101386.16;4958217;28;20039;-73
2023/11/16 06:54:21;;;;;;;4.63;1.50;;;;;;;18.91;46.86;101376.31;4942043;28;20031;-73
2023/11/16 06:56:49;;;;;;;3.78;1.30;;;;;;;18.92;46.77;101364.78;4958757;28;20055;-73
2023/11/16 06:59:19;;;;;;;4.93;1.75;;;;;;;18.94;46.72;101361.06;4957700;28;20027;-73
2023/11/16 07:01:45;;;;;;;5.78;1.40;;;;;;;18.96;47.07;101358.31;4958308;28;20049;-73
2023/11/16 07:04:11;;;;;;;4.18;1.30;;;;;;;18.98;46.79;101359.03;4959617;28;20048;-73
2023/11/16 07:06:37;;;;;;;4.10;1.60;;;;;;;18.98;46.73;101354.59;4958940;28;20039;-73
2023/11/16 07:09:02;;;;;;;3.60;1.40;;;;;;;19.00;46.63;101355.31;4942583;28;20403;-73
2023/11/16 07:11:28;;;;;;;4.13;1.85;;;;;;;19.00;46.95;101343.91;4959086;28;20031;-73
2023/11/16 07:13:53;;;;;;;4.03;1.20;;;;;;;19.01;46.54;101348.25;4958817;28;20449;-72
2023/11/16 07:16:18;;;;;;;4.60;1.70;;;;;;;19.01;46.69;101343.78;4957906;28;20284;-73
2023/11/16 07:18:47;;;;;;;4.65;1.50;;;;;;;19.02;46.66;101341.97;4959313;28;20042;-72
2023/11/16 07:21:14;;;;;;;4.32;1.30;;;;;;;19.03;46.87;101335.75;4958328;28;20387;-73
2023/11/16 07:23:39;;;;;;;3.28;1.25;;;;;;;19.04;46.56;101342.69;4944564;28;20026;-73
2023/11/16 07:26:08;;;;;;;4.22;1.23;;;;;;;19.06;46.75;101342.59;4959258;28;20027;-73
2023/11/16 07:28:34;;;;;;;4.20;1.40;;;;;;;19.06;46.35;101348.72;4957862;28;20039;-73
2023/11/16 07:30:59;;;;;;;3.47;1.30;;;;;;;19.07;46.55;101349.56;4958181;28;20446;-73
2023/11/16 07:33:25;;;;;;;3.47;1.40;;;;;;;19.08;46.41;101341.50;4957405;28;20050;-72
2023/11/16 07:35:51;;;;;;;4.90;1.40;;;;;;;19.10;46.35;101336.09;4955774;28;20277;-73
2023/11/16 07:38:17;;;;;;;3.85;1.55;;;;;;;19.10;46.19;101331.66;4927625;28;20102;-73
2023/11/16 07:40:43;;;;;;;5.13;1.55;;;;;;;19.11;46.47;101329.88;4957933;28;20038;-73
2023/11/16 07:43:09;;;;;;;5.00;1.60;;;;;;;19.12;46.31;101334.19;4958267;28;20046;-72
2023/11/16 07:45:34;;;;;;;3.80;1.40;;;;;;;19.10;46.69;101321.09;4960676;28;20086;-73
2023/11/16 07:48:04;;;;;;;3.85;1.45;;;;;;;19.12;46.50;101323.63;4961539;28;20498;-73
2023/11/16 07:50:32;;;;;;;5.50;1.60;;;;;;;19.11;46.33;101314.03;4945207;28;20068;-73
2023/11/16 07:52:59;;;;;;;4.13;1.13;;;;;;;19.12;46.56;101305.97;4974826;28;20027;-73
2023/11/16 07:55:25;;;;;;;4.55;1.20;;;;;;;19.11;46.71;101296.38;4958676;28;20114;-72
2023/11/16 07:57:52;;;;;;;3.63;1.45;;;;;;;19.12;46.66;101307.75;4960326;28;20038;-73
2023/11/16 08:00:26;;;;;;;4.47;1.50;;;;;;;19.11;46.52;101309.56;4958810;28;20049;-73
2023/11/16 08:05:41;;;;;;;5.70;1.30;;;;;;;19.10;46.54;101289.38;4958172;28;20418;-73
2023/11/16 08:08:11;;;;;;;5.10;1.67;;;;;;;19.11;46.55;101290.25;4958832;28;20026;-73
2023/11/16 08:10:48;;;;;;;3.22;1.23;;;;;;;19.10;46.59;101293.84;4958060;28;20130;-73
2023/11/16 08:13:17;;;;;;;3.28;1.30;;;;;;;19.10;46.59;101299.13;4959714;28;20047;-72
2023/11/16 08:15:43;;;;;;;4.15;1.33;;;;;;;19.09;46.65;101295.66;4931839;28;20041;-73
2023/11/16 08:18:09;;;;;;;5.05;1.52;;;;;;;19.09;46.58;101298.28;4956388;28;20031;-73
2023/11/16 08:20:36;;;;;;;5.35;1.52;;;;;;;19.09;46.56;101295.66;4955857;28;20081;-73
2023/11/16 08:23:01;;;;;;;4.70;1.30;;;;;;;19.09;46.54;101298.28;4958779;28;20042;-72
2023/11/16 08:25:28;;;;;;;3.47;1.23;;;;;;;19.10;46.53;101291.19;4956931;28;20039;-72
2023/11/16 08:27:55;;;;;;;4.45;1.40;;;;;;;19.10;46.37;101294.66;4945769;28;20094;-72
2023/11/16 08:30:24;;;;;;;4.32;1.60;;;;;;;19.10;46.55;101280.63;4958470;28;20369;-73
2023/11/16 08:32:50;;;;;;;3.95;1.50;;;;;;;19.09;46.62;101285.09;4957816;28;20473;-73
2023/11/16 08:35:16;;;;;;;4.18;1.38;;;;;;;19.09;46.53;101282.44;4939058;28;20271;-72
2023/11/16 08:37:42;;;;;;;3.83;1.13;;;;;;;19.09;46.51;101282.44;4956238;28;20550;-72
2023/11/16 08:40:08;;;;;;;5.07;1.48;;;;;;;19.10;46.67;101280.63;4956524;28;20118;-72
2023/11/16 08:42:42;;;;;;;5.22;1.42;;;;;;;19.09;46.72;101279.81;4958824;28;20406;-72
2023/11/16 08:45:19;;;;;;;3.97;1.52;;;;;;;19.09;46.48;101279.81;4957822;28;20039;-72
2023/11/16 08:47:51;;;;;;;3.90;1.40;;;;;;;19.09;46.48;101281.59;4957063;28;20133;-71
2023/11/16 08:50:17;;;;;;;4.15;1.45;;;;;;;19.09;46.54;101274.53;4957620;28;20031;-71
2023/11/16 08:52:45;;;;;;;3.50;1.30;;;;;;;19.09;46.32;101269.22;4958601;28;20049;-71
2023/11/16 08:55:12;;;;;;;5.85;1.73;;;;;;;19.10;46.37;101264.78;4955352;28;20031;-75
2023/11/16 08:57:40;;;;;;;5.10;1.50;;;;;;;19.09;46.49;101277.16;4957597;28;20031;-73
2023/11/16 09:00:45;;;;;;;4.22;1.60;;;;;;;19.09;46.45;101271.00;4955517;28;20035;-71
2023/11/16 09:03:01;;;;;;;4.40;1.75;;;;;;;19.09;46.86;101263.94;4953337;28;20074;-71
2023/11/16 09:05:31;;;;;;;4.35;1.45;;;;;;;19.10;46.90;101268.25;4953793;28;20503;-72
2023/11/16 09:07:59;;;;;;;5.53;1.60;;;;;;;19.11;47.21;101266.47;4955493;28;20045;-72
2023/11/16 09:10:24;;;;;;;6.20;1.40;;;;;;;19.11;47.10;101263.84;4968955;28;20027;-74
2023/11/16 09:12:55;;;;;;;4.85;1.52;;;;;;;19.12;47.06;101263.72;4957662;28;20046;-72
2023/11/16 09:15:22;;;;;;;4.43;1.50;;;;;;;19.09;47.04;101256.03;4956516;28;20062;-71
2023/11/16 09:17:48;;;;;;;4.60;1.67;;;;;;;19.13;47.32;101264.53;4957784;28;20031;-73
2023/11/16 09:20:18;;;;;;;4.05;1.55;;;;;;;19.10;47.54;101268.25;4954296;28;20122;-73
2023/11/16 09:22:49;;;;;;;6.22;1.80;;;;;;;19.12;47.25;101269.00;4944673;28;20046;-73
2023/11/16 09:25:19;;;;;;;4.30;1.60;;;;;;;19.12;47.17;101269.00;4956555;28;20391;-75
2023/11/16 09:27:50;;;;;;;5.00;1.70;;;;;;;19.13;47.53;101267.19;4955537;28;20038;-72
2023/11/16 09:30:22;;;;;;;5.38;1.50;;;;;;;19.12;47.70;101261.06;4930094;28;20035;-72
2023/11/16 09:32:50;;;;;;;5.15;1.50;;;;;;;19.12;47.73;101258.44;4955714;28;20043;-72
2023/11/16 09:35:16;;;;;;;5.13;1.75;;;;;;;19.13;47.67;101256.63;4957260;28;20122;-71
2023/11/16 09:37:45;;;;;;;5.20;1.80;;;;;;;19.13;47.63;101260.09;4956060;28;20097;-71
2023/11/16 09:40:19;;;;;;;5.20;2.25;;;;;;;19.13;47.74;101252.16;4958857;28;20047;-75
2023/11/16 09:42:48;;;;;;;5.22;1.80;;;;;;;19.13;48.11;101248.69;4946362;28;20031;-73
2023/11/16 09:45:20;;;;;;;6.05;1.50;;;;;;;19.13;47.92;101248.69;4959268;28;20039;-73
2023/11/16 09:47:49;;;;;;;4.97;1.80;;;;;;;19.13;47.98;101238.94;4957303;28;20547;-72
2023/11/16 09:50:15;;;;;;;6.20;2.08;;;;;;;19.14;47.83;101245.94;4960293;28;20074;-72
2023/11/16 09:52:41;;;;;;;4.72;1.55;;;;;;;19.15;47.74;101241.47;4960393;28;20062;-72
2023/11/16 09:55:10;;;;;;;4.60;1.70;;;;;;;19.15;47.99;101228.25;4959983;28;20034;-73
2023/11/16 09:57:37;;;;;;;4.60;1.60;;;;;;;19.15;47.90;101223.84;4960299;28;20077;-73
2023/11/16 10:00:15;;;;;;;5.15;1.50;;;;;;;19.15;48.03;101218.56;4960430;28;20044;-75
2023/11/16 10:02:46;;;;;;;4.78;1.70;;;;;;;19.14;48.23;101214.22;4947369;28;20680;-74
2023/11/16 10:05:35;;;;;;;4.40;1.70;;;;;;;19.15;48.09;101207.13;4956831;28;20813;-72
2023/11/16 10:08:14;;;;;;;5.78;1.70;;;;;;;19.17;48.06;101207.88;4957095;28;20035;-72
2023/11/16 10:11:05;;;;;;;4.38;1.73;;;;;;;19.20;47.99;101210.25;4952624;28;20074;-72
2023/11/16 10:13:31;;;;;;;5.13;2.10;;;;;;;19.22;48.06;101205.69;4958666;28;20035;-73
2023/11/16 10:16:11;;;;;;;5.75;1.75;;;;;;;19.20;47.89;101197.03;4928530;28;20049;-71
2023/11/16 10:18:38;;;;;;;5.82;1.80;;;;;;;19.24;47.60;101195.81;4973079;28;20031;-75
2023/11/16 10:21:04;;;;;;;6.78;2.05;;;;;;;19.21;47.90;101196.06;4958874;28;20034;-77
2023/11/16 10:23:29;;;;;;;5.28;1.60;;;;;;;19.24;48.04;101200.28;4954640;28;20078;-79
2023/11/16 10:25:55;;;;;;;8.00;1.77;;;;;;;19.19;48.12;101205.94;4952603;28;20043;-79
2023/11/16 10:28:28;;;;;;;5.38;2.33;;;;;;;19.15;48.15;101199.19;5024454;27;20540;-67
2023/11/16 10:30:57;;;;;;;6.57;1.52;;;;;;;19.11;48.25;101187.22;5022977;28;20057;-71
2023/11/16 10:33:24;;;;;;;6.68;1.80;;;;;;;19.14;47.75;101186.97;5022957;28;20057;-67
2023/11/16 10:35:55;;;;;;;5.70;1.98;;;;;;;19.21;47.71;101190.78;5023956;28;20033;-68
2023/11/16 10:38:22;;;;;;;4.78;1.60;;;;;;;19.16;47.94;101183.22;5024530;28;20029;-69
2023/11/16 10:40:51;;;;;;;4.47;1.52;;;;;;;19.17;48.11;101178.81;5025846;28;20581;-73
2023/11/16 10:43:19;;;;;;;6.00;1.70;;;;;;;19.13;48.22;101172.91;5023392;28;20033;-66
2023/11/16 10:45:45;;;;;;;4.70;1.67;;;;;;;19.12;48.26;101176.53;5025788;28;20614;-67
2023/11/16 10:48:13;;;;;;;6.32;1.90;;;;;;;19.11;48.11;101168.72;5024517;28;20080;-71
2023/11/16 10:50:41;;;;;;;6.45;1.70;;;;;;;19.12;48.01;101170.38;5023301;28;20038;-68
2023/11/16 10:53:12;;;;;;;7.60;1.88;;;;;;;19.13;48.17;101158.88;5019204;28;20550;-70
2023/11/16 10:55:40;;;;;;;7.50;2.00;;;;;;;19.15;48.02;101155.16;5019273;28;20044;-69
2023/11/16 10:58:07;;;;;;;5.30;1.80;;;;;;;19.12;48.06;101143.97;5018881;28;20029;-72
2023/11/16 11:00:34;;;;;;;4.97;1.50;;;;;;;19.12;48.04;101146.63;5017617;28;20029;-70
2023/11/16 11:03:01;;;;;;;7.13;1.85;;;;;;;19.11;47.92;101148.44;5018589;28;20038;-71
2023/11/16 11:05:30;;;;;;;6.47;1.85;;;;;;;19.12;47.91;101143.97;5019824;28;20033;-71
2023/11/16 11:07:57;;;;;;;7.18;1.67;;;;;;;19.15;47.86;101147.22;5018121;28;20120;-70
2023/11/16 11:10:23;;;;;;;6.35;1.60;;;;;;;19.20;47.80;101141.53;5018513;28;20072;-71
2023/11/16 11:12:49;;;;;;;6.68;1.90;;;;;;;19.17;47.99;101131.25;5018450;28;20041;-70
2023/11/16 11:15:31;;;;;;;5.78;1.70;;;;;;;19.16;47.79;101124.28;5017577;28;20022;-72
2023/11/16 11:17:58;;;;;;;6.28;1.80;;;;;;;19.15;47.88;101118.16;5018449;28;20034;-72
2023/11/16 11:20:43;;;;;;;4.68;1.83;;;;;;;19.10;48.09;101117.69;5019197;28;20710;-71
2023/11/16 11:23:13;;;;;;;5.18;1.88;;;;;;;19.12;47.98;101112.28;5018818;28;20068;-73
2023/11/16 11:25:40;;;;;;;3.85;1.50;;;;;;;19.11;47.84;101100.88;5018535;28;20068;-71
2023/11/16 11:28:06;;;;;;;5.57;1.70;;;;;;;19.10;47.93;101096.53;5017135;28;20092;-72